.
WxDataArchive / Data Records for 2015-06-10
2015-06-09 June 2015 2015-06-11

Data Records for Wednesday, 10 June 2015

Time	Temp	Chill	HIndex	Humid	Dewpt	 Wind 	HiWind	WindDir	Rain 	Barom
-----	----	-----	------	-----	-----	------	------	-------	-----	-----
00:00	64.5	64.5	64.5	87	60.5	0	0	---	0.00	29.785 
00:05	64.5	64.5	64.5	87	60.5	0	0	---	0.00	29.785 
00:10	64.5	64.5	64.5	86	60.2	0	0	---	0.00	29.785 
00:15	64.7	64.7	64.7	86	60.4	0	0	---	0.00	29.782 
00:20	64.7	64.7	64.7	86	60.4	0	0	---	0.00	29.782 
00:25	64.8	64.8	64.8	86	60.5	0	1	315	0.00	29.782 
00:30	65.0	65.0	65.0	85	60.4	0	0	---	0.00	29.783 
00:35	65.0	65.0	65.0	85	60.4	0	0	---	0.00	29.783 
00:40	65.0	65.0	65.0	85	60.4	0	0	---	0.00	29.783 
00:45	65.0	65.0	65.0	84	60.0	0	0	---	0.00	29.781 
00:50	65.0	65.0	65.0	84	60.0	0	0	---	0.00	29.781 
00:55	65.0	65.0	65.0	84	60.0	0	0	---	0.00	29.781 
01:00	65.0	65.0	65.0	84	60.0	0	0	---	0.00	29.782 
01:05	65.0	65.0	65.0	84	60.0	0	0	---	0.00	29.782 
01:10	65.0	65.0	65.0	84	60.0	0	0	---	0.00	29.782 
01:15	65.2	65.2	65.2	84	60.2	0	0	---	0.00	29.781 
01:20	65.2	65.2	65.2	83	59.9	0	0	---	0.00	29.781 
01:25	65.2	65.2	65.2	83	59.9	0	0	---	0.00	29.781 
01:30	65.2	65.2	65.2	83	59.9	0	0	---	0.00	29.778 
01:35	65.3	65.3	65.3	83	60.0	0	1	315	0.00	29.778 
01:40	65.6	65.6	65.6	82	59.9	0	1	315	0.00	29.778 
01:45	65.8	65.8	65.8	82	60.1	0	0	---	0.00	29.770 
01:50	66.0	66.0	66.0	81	60.0	0	1	315	0.00	29.770 
01:55	66.0	66.0	66.0	81	60.0	0	0	---	0.00	29.770 
02:00	66.1	66.1	66.1	81	60.1	0	1	315	0.00	29.769 
02:05	66.1	66.1	66.1	80	59.7	0	0	---	0.00	29.769 
02:10	66.1	66.1	66.1	80	59.7	0	0	---	0.00	29.769 
02:15	66.1	66.1	66.1	80	59.7	0	1	315	0.00	29.765 
02:20	66.1	66.1	66.1	80	59.7	0	1	315	0.00	29.765 
02:25	66.1	66.1	66.1	80	59.7	0	0	---	0.00	29.765 
02:30	66.1	66.1	66.1	79	59.4	0	0	---	0.00	29.765 
02:35	66.1	66.1	66.1	79	59.4	0	1	315	0.00	29.765 
02:40	66.1	66.1	66.1	79	59.4	0	0	---	0.00	29.765 
02:45	66.1	66.1	66.1	79	59.4	0	0	---	0.00	29.761 
02:50	66.1	66.1	66.1	79	59.4	0	1	315	0.00	29.761 
02:55	66.1	66.1	66.1	79	59.4	0	0	---	0.00	29.761 
03:00	66.3	66.3	66.3	78	59.2	0	1	315	0.00	29.758 
03:05	66.3	66.3	66.3	78	59.2	0	1	315	0.00	29.758 
03:10	66.3	66.3	66.3	78	59.2	0	1	315	0.00	29.758 
03:15	66.4	66.4	66.4	77	59.0	0	1	315	0.00	29.753 
03:20	66.6	66.6	66.6	77	59.2	0	1	315	0.00	29.753 
03:25	66.6	66.6	66.6	77	59.2	0	3	270	0.00	29.753 
03:30	66.9	66.9	66.9	76	59.1	0	2	270	0.00	29.748 
03:35	67.1	67.1	67.1	75	58.9	0	2	270	0.00	29.748 
03:40	67.3	67.3	67.3	74	58.7	0	1	270	0.00	29.748 
03:45	67.4	67.4	67.4	74	58.8	0	2	270	0.00	29.747 
03:50	67.4	67.4	67.4	73	58.4	0	1	270	0.00	29.747 
03:55	67.6	67.6	67.6	73	58.6	0	3	270	0.00	29.747 
04:00	67.6	67.6	67.6	73	58.6	0	2	270	0.00	29.746 
04:05	67.6	67.6	67.6	73	58.6	0	1	270	0.00	29.746 
04:10	67.6	67.6	67.6	73	58.6	0	2	270	0.00	29.746 
04:15	67.8	67.8	67.8	73	58.8	0	2	270	0.00	29.742 
04:20	67.8	67.8	67.8	73	58.8	0	1	270	0.00	29.742 
04:25	67.6	67.6	67.6	73	58.6	0	1	270	0.00	29.742 
04:30	67.6	67.6	67.6	73	58.6	0	4	270	0.00	29.737 
04:35	67.6	67.6	67.6	73	58.6	0	4	68	0.00	29.737 
04:40	67.6	67.6	67.6	73	58.6	0	1	68	0.00	29.737 
04:45	67.6	67.6	67.6	73	58.6	0	2	68	0.00	29.739 
04:50	67.6	67.6	67.6	73	58.6	0	1	68	0.00	29.739 
04:55	67.6	67.6	67.6	73	58.6	0	3	225	0.00	29.739 
05:00	67.6	67.6	67.6	72	58.2	0	2	225	0.00	29.741 
05:05	67.8	67.8	67.8	72	58.4	0	2	225	0.00	29.741 
05:10	67.8	67.8	67.8	72	58.4	0	1	202	0.00	29.741 
05:15	67.8	67.8	67.8	72	58.4	0	2	202	0.00	29.741 
05:20	67.8	67.8	67.8	72	58.4	0	1	270	0.00	29.741 
05:25	67.8	67.8	67.8	72	58.4	0	3	270	0.00	29.741 
05:30	67.8	67.8	67.8	72	58.4	1	3	270	0.00	29.735 
05:35	67.8	67.8	67.8	72	58.4	0	2	270	0.00	29.735 
05:40	67.8	67.8	67.8	72	58.4	0	2	270	0.00	29.735 
05:45	67.8	67.8	67.8	72	58.4	0	3	270	0.00	29.734 
05:50	67.9	67.9	67.9	72	58.5	0	2	270	0.00	29.734 
05:55	67.8	67.8	67.8	73	58.8	0	2	270	0.00	29.734 
06:00	67.8	67.8	67.8	73	58.8	0	1	270	0.00	29.735 
06:05	67.8	67.8	67.8	73	58.8	0	2	270	0.00	29.735 
06:10	67.8	67.8	67.8	73	58.8	0	2	270	0.00	29.735 
06:15	67.6	67.6	67.6	73	58.6	0	1	270	0.00	29.734 
06:20	67.6	67.6	67.6	73	58.6	0	2	270	0.00	29.734 
06:25	67.8	67.8	67.8	73	58.8	0	2	270	0.00	29.734 
06:30	67.8	67.8	67.8	73	58.8	0	2	270	0.00	29.742 
06:35	67.9	67.9	67.9	73	58.9	0	3	315	0.00	29.742 
06:40	68.1	68.1	68.1	73	59.1	0	4	315	0.00	29.742 
06:45	68.3	68.3	68.3	73	59.3	0	2	338	0.00	29.748 
06:50	68.4	68.4	68.4	73	59.4	0	1	315	0.00	29.748 
06:55	68.4	68.4	68.4	73	59.4	0	3	315	0.00	29.748 
07:00	68.6	68.6	68.6	73	59.6	0	1	292	0.00	29.763 
07:05	68.6	68.6	68.6	73	59.6	0	1	292	0.00	29.763 
07:10	68.6	68.6	68.6	74	60.0	0	2	292	0.00	29.763 
07:15	68.4	68.4	68.4	76	60.5	1	3	292	0.00	29.771 
07:20	67.8	67.8	67.8	80	61.4	1	3	270	0.05	29.771 
07:25	66.6	66.6	66.6	83	61.3	1	3	270	0.02	29.771 
07:30	66.0	66.0	66.0	85	61.4	0	2	270	0.00	29.769 
07:35	65.6	65.6	65.6	87	61.6	0	1	270	0.00	29.769 
07:40	65.3	65.3	65.3	88	61.6	0	1	270	0.01	29.769 
07:45	65.2	65.2	65.2	88	61.6	0	1	270	0.00	29.767 
07:50	65.2	65.2	65.2	89	61.9	0	1	270	0.00	29.767 
07:55	65.2	65.2	65.2	89	61.9	0	1	270	0.00	29.767 
08:00	65.2	65.2	65.2	89	61.9	0	1	270	0.00	29.770 
08:05	65.2	65.2	65.2	89	61.9	0	0	---	0.00	29.770 
08:10	65.2	65.2	65.2	90	62.2	0	0	---	0.00	29.770 
08:15	65.2	65.2	65.2	90	62.2	0	1	270	0.00	29.784 
08:20	65.2	65.2	65.2	90	62.2	0	1	270	0.00	29.784 
08:25	65.2	65.2	65.2	90	62.2	0	0	---	0.00	29.784 
08:30	65.3	65.3	65.3	91	62.6	0	1	248	0.00	29.767 
08:35	65.3	65.3	65.3	91	62.6	0	1	270	0.00	29.767 
08:40	65.5	65.5	65.5	91	62.8	0	0	---	0.00	29.767 
08:45	65.5	65.5	65.5	90	62.5	0	1	338	0.00	29.753 
08:50	65.5	65.5	65.5	90	62.5	0	0	---	0.00	29.753 
08:55	65.5	65.5	65.5	89	62.2	0	1	270	0.00	29.753 
09:00	66.0	66.0	66.0	90	63.0	0	0	---	0.00	29.761 
09:05	66.9	66.9	66.9	90	63.9	0	0	---	0.00	29.761 
09:10	67.4	67.4	67.4	89	64.0	0	1	270	0.00	29.761 
09:15	67.6	67.6	67.6	88	63.9	0	0	---	0.00	29.777 
09:20	67.6	67.6	67.6	88	63.9	0	0	---	0.00	29.777 
09:25	67.8	67.8	67.8	88	64.1	0	1	270	0.00	29.777 
09:30	67.8	67.8	67.8	88	64.1	0	1	270	0.01	29.766 
09:35	67.6	67.6	67.6	88	63.9	0	1	270	0.00	29.766 
09:40	67.4	67.4	67.4	88	63.7	0	1	270	0.00	29.766 
09:45	67.4	67.4	67.4	88	63.7	0	1	270	0.00	29.771 
09:50	67.6	67.6	67.6	89	64.2	0	1	270	0.00	29.771 
09:55	67.6	67.6	67.6	88	63.9	0	1	270	0.00	29.771 
10:00	67.6	67.6	67.6	88	63.9	0	0	---	0.00	29.769 
10:05	67.6	67.6	67.6	88	63.9	0	0	---	0.00	29.769 
10:10	67.8	67.8	67.8	88	64.1	0	0	---	0.00	29.769 
10:15	68.1	68.1	68.1	88	64.4	0	1	270	0.00	29.767 
10:20	68.9	68.9	68.9	89	65.5	0	1	270	0.00	29.767 
10:25	69.4	69.4	69.4	88	65.7	0	2	270	0.00	29.767 
10:30	69.9	69.9	69.9	87	65.8	0	1	270	0.00	29.758 
10:35	70.8	70.8	70.8	87	66.7	0	1	270	0.00	29.758 
10:40	72.1	72.1	72.1	87	68.0	0	1	270	0.00	29.758 
10:45	73.0	73.0	73.0	83	67.5	0	2	270	0.00	29.750 
10:50	73.9	73.9	73.9	80	67.3	0	3	292	0.00	29.750 
10:55	74.4	74.4	74.4	77	66.7	0	2	292	0.00	29.750 
11:00	74.9	74.9	74.9	74	66.0	1	3	292	0.00	29.750 
11:05	75.1	75.1	76.6	72	65.4	1	6	292	0.00	29.750 
11:10	75.3	75.3	77.0	70	64.8	1	6	270	0.00	29.750 
11:15	75.3	75.3	77.0	70	64.8	1	4	270	0.00	29.761 
11:20	74.9	74.9	74.9	70	64.4	1	5	270	0.00	29.761 
11:25	74.6	74.6	74.6	71	64.6	1	3	270	0.00	29.761 
11:30	74.4	74.4	74.4	73	65.2	1	4	270	0.00	29.765 
11:35	74.4	74.4	74.4	73	65.2	2	5	270	0.00	29.765 
11:40	74.2	74.2	74.2	73	65.0	2	5	292	0.00	29.765 
11:45	74.0	74.0	74.0	73	64.8	1	7	292	0.00	29.758 
11:50	74.4	74.4	74.4	74	65.6	1	4	292	0.00	29.758 
11:55	74.6	74.6	74.6	73	65.4	1	6	270	0.00	29.758 
12:00	74.7	74.7	74.7	73	65.5	0	2	270	0.00	29.753 
12:05	74.7	74.7	74.7	73	65.5	1	3	270	0.00	29.753 
12:10	74.6	74.6	74.6	74	65.7	1	3	270	0.00	29.753 
12:15	74.2	74.2	74.2	74	65.4	0	2	270	0.00	29.754 
12:20	74.0	74.0	74.0	75	65.6	0	2	270	0.00	29.754 
12:25	74.6	74.6	74.6	75	66.1	1	3	292	0.00	29.754 
12:30	75.1	75.1	76.5	73	65.8	0	3	292	0.00	29.750 
12:35	75.8	75.8	77.4	71	65.7	1	5	315	0.00	29.750 
12:40	76.5	76.5	78.2	70	66.0	1	2	315	0.00	29.750 
12:45	77.4	77.4	79.2	69	66.4	1	4	315	0.00	29.745 
12:50	78.3	78.3	80.3	67	66.4	1	4	68	0.00	29.745 
12:55	78.6	78.6	80.6	65	65.8	1	6	270	0.00	29.745 
13:00	78.6	78.6	80.5	64	65.4	1	3	270	0.00	29.738 
13:05	78.8	78.8	80.9	66	66.5	0	3	270	0.00	29.738 
13:10	79.6	79.6	81.6	63	65.9	2	7	270	0.00	29.738 
13:15	80.1	80.1	82.0	61	65.4	1	4	248	0.00	29.738 
13:20	80.5	80.5	82.7	62	66.3	1	5	270	0.00	29.738 
13:25	80.5	80.5	82.4	60	65.3	1	4	292	0.00	29.738 
13:30	80.7	80.7	82.7	60	65.5	2	6	270	0.00	29.730 
13:35	81.1	81.1	83.5	62	66.8	1	2	270	0.00	29.730 
13:40	81.2	81.2	83.3	60	66.0	1	3	270	0.00	29.730 
13:45	81.8	81.8	84.0	59	66.0	1	4	270	0.00	29.726 
13:50	82.4	82.4	84.6	58	66.1	1	4	270	0.00	29.726 
13:55	83.0	83.0	85.7	59	67.2	1	4	338	0.00	29.726 
14:00	83.4	83.4	86.1	58	67.0	1	4	292	0.00	29.722 
14:05	83.8	83.8	86.2	56	66.4	1	5	292	0.00	29.722 
14:10	84.1	84.1	86.4	55	66.2	1	4	292	0.00	29.722 
14:15	84.7	84.7	86.8	53	65.6	1	5	292	0.00	29.720 
14:20	84.7	84.7	86.5	52	65.1	3	7	292	0.00	29.720 
14:25	84.9	84.9	87.1	53	65.8	2	5	292	0.00	29.720 
14:30	85.3	85.3	87.1	51	65.1	2	5	292	0.00	29.713 
14:35	85.5	85.5	87.2	50	64.7	2	6	292	0.00	29.713 
14:40	85.7	85.7	88.0	52	66.0	1	5	292	0.00	29.713 
14:45	85.9	85.9	88.0	51	65.6	2	4	292	0.00	29.709 
14:50	86.1	86.1	88.0	50	65.3	1	4	292	0.00	29.709 
14:55	86.3	86.3	88.0	49	64.9	1	4	292	0.00	29.709 
15:00	86.3	86.3	88.0	49	64.9	2	4	248	0.00	29.707 
15:05	86.5	86.5	88.6	50	65.6	1	3	248	0.00	29.707 
15:10	87.0	87.0	89.1	49	65.5	1	4	248	0.00	29.707 
15:15	87.0	87.0	89.1	49	65.5	2	5	270	0.00	29.700 
15:20	87.2	87.2	89.4	49	65.7	1	4	270	0.00	29.700 
15:25	87.6	87.6	90.0	49	66.0	1	3	315	0.00	29.700 
15:30	87.6	87.6	90.0	49	66.0	1	3	270	0.00	29.692 
15:35	87.8	87.8	90.0	48	65.6	1	6	270	0.00	29.692 
15:40	87.8	87.8	89.7	47	65.0	1	4	248	0.00	29.692 
15:45	87.8	87.8	90.4	49	66.2	2	5	292	0.00	29.693 
15:50	88.0	88.0	90.7	49	66.4	1	3	225	0.00	29.693 
15:55	88.0	88.0	90.7	49	66.4	1	4	270	0.00	29.693 
16:00	88.2	88.2	90.7	48	66.0	1	6	270	0.00	29.695 
16:05	88.4	88.4	91.3	49	66.8	1	5	270	0.00	29.695 
16:10	88.4	88.4	91.0	48	66.2	1	5	292	0.00	29.695 
16:15	88.4	88.4	91.3	49	66.8	1	5	292	0.00	29.690 
16:20	88.6	88.6	91.3	48	66.4	2	7	292	0.00	29.690 
16:25	88.6	88.6	91.0	47	65.7	1	5	270	0.00	29.690 
16:30	88.6	88.6	91.3	48	66.4	1	3	270	0.00	29.690 
16:35	88.6	88.6	91.3	48	66.4	1	6	270	0.00	29.690 
16:40	88.6	88.6	90.6	46	65.1	2	4	270	0.00	29.690 
16:45	88.6	88.6	92.1	50	67.5	1	6	270	0.00	29.690 
16:50	88.6	88.6	91.3	48	66.4	1	4	270	0.00	29.690 
16:55	88.4	88.4	91.3	49	66.8	1	4	270	0.00	29.690 
17:00	88.4	88.4	90.6	47	65.6	1	4	45	0.00	29.689 
17:05	88.6	88.6	90.6	46	65.1	1	6	292	0.00	29.689 
17:10	88.6	88.6	90.3	45	64.5	2	4	248	0.00	29.689 
17:15	88.8	88.8	90.9	46	65.3	1	4	248	0.00	29.688 
17:20	88.8	88.8	90.9	46	65.3	2	5	270	0.00	29.688 
17:25	88.8	88.8	90.6	45	64.7	2	6	270	0.00	29.688 
17:30	88.8	88.8	90.6	45	64.7	3	7	270	0.00	29.687 
17:35	88.8	88.8	90.6	45	64.7	2	6	248	0.00	29.687 
17:40	88.8	88.8	90.9	46	65.3	2	9	270	0.00	29.687 
17:45	88.8	88.8	90.6	45	64.7	2	6	270	0.00	29.687 
17:50	88.8	88.8	90.9	46	65.3	2	7	270	0.00	29.687 
17:55	88.8	88.8	91.6	48	66.5	0	2	270	0.00	29.687 
18:00	88.8	88.8	91.6	48	66.5	1	3	270	0.00	29.686 
18:05	88.6	88.6	91.3	48	66.4	1	3	270	0.00	29.686 
18:10	88.6	88.6	91.0	47	65.7	3	6	270	0.00	29.686 
18:15	88.4	88.4	91.0	48	66.2	2	5	292	0.00	29.683 
18:20	88.2	88.2	91.0	49	66.6	1	3	292	0.00	29.683 
18:25	88.2	88.2	91.4	50	67.2	1	3	292	0.00	29.683 
18:30	88.0	88.0	90.7	49	66.4	2	5	292	0.00	29.678 
18:35	87.8	87.8	90.4	49	66.2	1	4	292	0.00	29.678 
18:40	87.8	87.8	90.7	50	66.8	2	4	292	0.00	29.678 
18:45	87.6	87.6	90.4	50	66.6	1	4	292	0.00	29.679 
18:50	87.6	87.6	90.7	51	67.2	0	3	292	0.00	29.679 
18:55	87.6	87.6	90.7	51	67.2	0	2	292	0.00	29.679 
19:00	87.4	87.4	90.4	51	67.0	1	3	292	0.00	29.677 
19:05	87.4	87.4	90.4	51	67.0	1	4	292	0.00	29.677 
19:10	87.2	87.2	90.1	51	66.8	1	4	292	0.00	29.677 
19:15	87.2	87.2	89.7	50	66.3	1	5	248	0.00	29.687 
19:20	87.0	87.0	89.7	51	66.6	1	5	270	0.00	29.687 
19:25	87.0	87.0	89.7	51	66.6	1	3	270	0.00	29.687 
19:30	86.7	86.7	89.3	51	66.4	0	2	270	0.00	29.691 
19:35	86.7	86.7	89.6	52	66.9	0	2	270	0.00	29.691 
19:40	86.3	86.3	89.3	53	67.1	0	2	270	0.00	29.691 
19:45	86.1	86.1	88.9	53	66.9	0	2	270	0.00	29.694 
19:50	85.9	85.9	88.9	54	67.3	0	3	270	0.00	29.694 
19:55	85.5	85.5	88.3	54	66.9	0	3	270	0.00	29.694 
20:00	85.3	85.3	88.0	54	66.7	0	3	225	0.00	29.693 
20:05	85.1	85.1	87.7	54	66.6	0	3	225	0.00	29.693 
20:10	84.9	84.9	87.6	55	66.9	0	1	225	0.00	29.693 
20:15	84.9	84.9	87.3	54	66.4	0	3	225	0.00	29.694 
20:20	84.7	84.7	87.3	55	66.7	0	2	225	0.00	29.694 
20:25	84.5	84.5	87.0	55	66.5	0	1	202	0.00	29.694 
20:30	84.1	84.1	86.4	55	66.2	0	1	202	0.00	29.695 
20:35	84.1	84.1	86.7	56	66.7	0	2	202	0.00	29.695 
20:40	84.0	84.0	86.5	56	66.6	0	1	202	0.00	29.695 
20:45	83.8	83.8	86.2	56	66.4	0	1	202	0.00	29.699 
20:50	83.6	83.6	86.1	57	66.7	0	1	202	0.00	29.699 
20:55	83.4	83.4	85.8	57	66.5	0	1	202	0.00	29.699 
21:00	83.2	83.2	85.6	57	66.4	0	1	202	0.00	29.686 
21:05	83.0	83.0	85.5	58	66.7	0	1	202	0.00	29.686 
21:10	82.6	82.6	84.9	58	66.3	0	1	202	0.00	29.686 
21:15	82.4	82.4	84.8	59	66.6	0	1	202	0.00	29.686 
21:20	82.2	82.2	84.5	59	66.4	0	2	248	0.00	29.686 
21:25	82.2	82.2	84.3	58	65.9	0	2	248	0.00	29.686 
21:30	82.2	82.2	84.3	58	65.9	0	1	248	0.00	29.690 
21:35	82.0	82.0	84.1	58	65.7	0	2	248	0.00	29.690 
21:40	82.0	82.0	83.9	57	65.2	0	3	248	0.00	29.690 
21:45	82.0	82.0	83.7	56	64.7	1	4	248	0.00	29.693 
21:50	82.0	82.0	83.7	56	64.7	0	2	248	0.00	29.693 
21:55	82.0	82.0	83.7	56	64.7	1	2	248	0.00	29.693 
22:00	82.0	82.0	83.7	56	64.7	0	2	248	0.00	29.707 
22:05	82.0	82.0	83.7	56	64.7	0	2	248	0.00	29.707 
22:10	81.8	81.8	83.5	56	64.5	0	2	248	0.00	29.707 
22:15	81.6	81.6	83.2	56	64.4	1	4	248	0.00	29.711 
22:20	81.6	81.6	83.1	55	63.8	1	3	292	0.00	29.711 
22:25	81.8	81.8	83.5	56	64.5	0	3	292	0.00	29.711 
22:30	81.8	81.8	83.5	56	64.5	1	3	292	0.00	29.740 
22:35	81.8	81.8	83.5	56	64.5	1	3	225	0.00	29.740 
22:40	81.8	81.8	83.5	56	64.5	2	4	248	0.00	29.740 
22:45	81.8	81.8	83.5	56	64.5	2	4	248	0.00	29.737 
22:50	81.6	81.6	83.4	57	64.9	1	3	248	0.00	29.737 
22:55	81.4	81.4	83.3	58	65.2	2	5	248	0.00	29.737 
23:00	81.1	81.1	82.9	58	64.9	2	4	248	0.00	29.731 
23:05	81.1	81.1	83.0	59	65.4	1	3	248	0.00	29.731 
23:10	80.9	80.9	82.8	59	65.2	1	4	248	0.00	29.731 
23:15	80.7	80.7	82.7	60	65.5	0	1	248	0.00	29.746 
23:20	80.3	80.3	82.3	61	65.6	0	2	248	0.00	29.746 
23:25	80.1	80.1	82.0	61	65.4	0	1	248	0.00	29.746 
23:30	79.9	79.9	81.8	61	65.2	0	1	248	0.00	29.751 
23:35	79.8	79.8	81.8	62	65.6	0	1	248	0.00	29.751 
23:40	79.6	79.6	81.6	63	65.9	0	0	---	0.00	29.751 
23:45	79.2	79.2	81.2	64	65.9	0	1	248	0.00	29.754 
23:50	78.8	78.8	80.8	65	66.0	0	1	248	0.00	29.754 
23:55	78.1	78.1	80.0	67	66.2	0	2	248	0.00	29.754 

CoCoRaHS
IN-AL-39
A2 Web Hosting
Creative Commons License
GoDaddy
search engine by freefind advanced

loaded 2018-11-15 17:45:48 • last modified 2010-11-18 10:43:29
Privacy PolicyDisclaimer
• wx.awcolley.com is powered by PmWiki v.2002016 •
• all content (unless otherwise noted) © 2018 A W Colley